• Join FlightAware (Why Join?)
  • Login
  • US Flag 
07:50AM EST


 

Airport Tracker/Info


-or-


 

Live Flight TrackerFlight Track Log ✈ AAY843 ✈ 22-Jun-2014 ✈ KSYR - KPIE

Flight Track Log - Related Links

Times and Time Zones

All times are in EDT time to prevent confusion due to time zone crossing. See the AAY843 flight status page for this flight to view local times or setup timezone preferences in your user account.

Time Position Orientation Groundspeed Altitude Reporting Facility
EDT Latitude Longitude Course Direction KTS MPH feet Rate Location/Type
10:32AM 43.1075 -76.1333 259° West 175 201 1,100  Level Boston Center
10:33AM 43.0942 -76.2253 259° West 223 257 3,000 2,040 Climbing Boston Center
10:34AM 43.0422 -76.2906 223° Southwest 285 328 5,700 2,400 Climbing Boston Center
10:34AM 43.0258 -76.3039 211° Southwest 252 290 6,300 2,280 Climbing Boston Center
10:36AM 42.9600 -76.3639 214° Southwest 284 327 9,000 1,920 Climbing Boston Center
10:37AM 42.8719 -76.4308 209° Southwest 297 342 10,300 1,260 Climbing Boston Center
10:38AM 42.7881 -76.4933 209° Southwest 333 383 11,600 1,680 Climbing Boston Center
10:39AM 42.6919 -76.5669 209° Southwest 381 438 13,800 2,100 Climbing Boston Center
10:40AM 42.5947 -76.6475 211° Southwest 401 461 16,000 2,100 Climbing Boston Center
10:41AM 42.4906 -76.7200 207° Southwest 416 479 18,100 1,920 Climbing Boston Center
10:42AM 42.3689 -76.7444 188° South 434 499 20,000 1,620 Climbing Boston Center
10:43AM 42.2422 -76.7586 185° South 451 519 21,500 1,800 Climbing Boston Center
10:44AM 42.1131 -76.7758 186° South 462 532 23,400 1,740 Climbing New York Center
10:45AM 42.0100 -76.7942 188° South 468 539 24,700 1,800 Climbing New York Center
10:46AM 41.8564 -76.8250 189° South 468 539 27,000 1,800 Climbing New York Center
10:47AM 41.7536 -76.8406 186° South 468 539 28,300 1,380 Climbing New York Center
10:48AM 41.6172 -76.8614 187° South 468 539 29,800 1,620 Climbing New York Center
10:49AM 41.4933 -76.8808 187° South 468 539 31,600 1,080 Climbing New York Center
10:50AM 41.3711 -76.9056 189° South 458 527 32,000 180 Climbing New York Center
10:51AM 41.2475 -76.9219 186° South 453 521 32,000  Level New York Center
10:52AM 41.1253 -76.9467 189° South 448 516 32,000  Level New York Center
10:53AM 41.0014 -76.9656 187° South 448 516 32,000  Level New York Center
10:54AM 40.8797 -76.9819 186° South 448 516 32,000 240 Level New York Center
10:55AM 40.7536 -77.0008 186° South 448 516 32,500 480 Climbing New York Center
10:56AM 40.6317 -77.0197 187° South 448 516 33,000 240 Climbing New York Center
10:57AM 40.5139 -77.0392 187° South 448 516 33,000  Level New York Center
10:58AM 40.3900 -77.0578 187° South 448 516 33,000  Level New York Center
10:59AM 40.2697 -77.0878 191° South 448 516 33,000  Level New York Center
11:00AM 40.1544 -77.1369 198° South 448 516 33,000  Level New York Center
11:01AM 40.0469 -77.1978 203° Southwest 435 501 33,000  Level New York Center
11:03AM 39.7992 -77.3172 200° South 435 501 33,000  Level Washington Center
11:04AM 39.6839 -77.3683 199° South 435 501 33,000  Level Washington Center
11:05AM 39.5706 -77.4222 200° South 430 495 33,000  Level Washington Center
11:06AM 39.4572 -77.4811 202° Southwest 435 501 33,000  Level Washington Center
11:07AM 39.3458 -77.5372 201° Southwest 435 501 33,000  Level Washington Center
11:08AM 39.2325 -77.5878 199° South 435 501 33,000 -240 Level Washington Center
11:09AM 39.1211 -77.6383 199° South 430 495 32,600 -480 Descending Washington Center
11:10AM 39.0203 -77.6861 200° South 430 495 32,100 -360 Descending Washington Center
11:11AM 38.8942 -77.7467 200° South 435 501 32,000 -60 Descending Washington Center
11:12AM 38.7764 -77.8072 202° Southwest 435 501 32,000  Level Washington Center
11:13AM 38.6647 -77.8569 199° South 443 510 32,000  Level Washington Center
11:14AM 38.5472 -77.9092 199° South 443 510 32,000 480 Level Washington Center
11:15AM 38.4397 -77.9667 203° Southwest 438 504 33,000 600 Climbing Washington Center
11:16AM 38.3378 -78.0536 214° Southwest 425 489 33,200 480 Climbing Washington Center
11:17AM 38.2442 -78.1431 217° Southwest 430 495 34,000 360 Climbing Washington Center
11:18AM 38.1506 -78.2269 215° Southwest 430 495 34,000  Level Washington Center
11:19AM 38.0486 -78.3078 212° Southwest 430 495 34,000  Level Washington Center
11:20AM 37.9636 -78.3811 214° Southwest 430 495 34,000  Level Washington Center
11:21AM 37.8656 -78.4694 215° Southwest 430 495 34,000  Level Washington Center
11:22AM 37.7675 -78.5550 215° Southwest 435 501 34,000  Level Washington Center
11:23AM 37.6653 -78.6403 213° Southwest 435 501 34,000  Level Washington Center
11:24AM 37.5653 -78.7200 212° Southwest 435 501 34,000  Level Washington Center
11:25AM 37.4628 -78.8075 214° Southwest 435 501 34,000  Level Washington Center
11:26AM 37.3622 -78.8947 215° Southwest 435 501 34,000  Level Washington Center
11:27AM 37.2619 -78.9764 213° Southwest 435 501 34,000  Level Washington Center
11:28AM 37.1594 -79.0606 213° Southwest 435 501 34,000  Level Washington Center
11:29AM 37.0589 -79.1419 213° Southwest 435 501 34,000  Level Washington Center
11:30AM 36.9583 -79.2256 214° Southwest 435 501 34,000  Level Washington Center
11:31AM 36.8578 -79.3117 214° Southwest 435 501 34,000  Level Washington Center
11:32AM 36.7483 -79.4050 214° Southwest 435 501 34,000  Level Washington Center
11:33AM 36.6456 -79.4856 212° Southwest 435 501 34,000  Level Washington Center
11:34AM 36.4875 -79.6156 213° Southwest 436 502 34,000  Level Atlanta Center
11:35AM 36.3861 -79.6983 213° Southwest 436 502 34,000  Level Atlanta Center
11:36AM 36.2847 -79.7811 213° Southwest 436 502 34,000  Level Atlanta Center
11:37AM 36.1831 -79.8586 212° Southwest 431 496 34,000  Level Atlanta Center
11:38AM 36.0836 -79.9408 214° Southwest 436 502 34,000  Level Atlanta Center
11:39AM 35.9756 -80.0103 207° Southwest 436 502 34,000  Level Atlanta Center
11:40AM 35.8628 -80.0697 203° Southwest 436 502 34,000  Level Atlanta Center
11:41AM 35.7475 -80.1239 201° Southwest 442 509 34,000  Level Atlanta Center
11:42AM 35.6203 -80.1889 203° Southwest 447 514 34,000  Level Atlanta Center
11:43AM 35.5114 -80.2450 203° Southwest 447 514 34,000  Level Atlanta Center
11:44AM 35.3967 -80.3064 204° Southwest 446 513 34,100  Climbing Atlanta Center
11:45AM 35.2814 -80.3597 201° Southwest 446 513 34,000 -60 Descending Atlanta Center
11:46AM 35.1681 -80.4131 201° Southwest 446 513 34,000  Level Atlanta Center
11:47AM 35.0769 -80.4575 202° Southwest 440 506 34,000  Level Jacksonville Center
11:48AM 34.9656 -80.5139 203° Southwest 440 506 34,000  Level Jacksonville Center
11:49AM 34.8539 -80.5728 203° Southwest 440 506 34,000  Level Jacksonville Center
11:50AM 34.7464 -80.6261 202° Southwest 433 498 34,000  Level Jacksonville Center
11:51AM 34.6328 -80.6822 202° Southwest 433 498 34,000  Level Jacksonville Center
11:52AM 34.5189 -80.7331 200° South 433 498 34,000  Level Jacksonville Center
11:53AM 34.4072 -80.7911 203° Southwest 433 498 34,000  Level Jacksonville Center
11:54AM 34.3042 -80.8639 210° Southwest 433 498 34,000  Level Jacksonville Center
11:55AM 34.2200 -80.9489 220° Southwest 419 482 34,000  Level Jacksonville Center
11:56AM 34.1233 -81.0514 221° Southwest 419 482 34,000  Level Jacksonville Center
11:57AM 34.0308 -81.1386 218° Southwest 419 482 34,000  Level Jacksonville Center
11:58AM 33.9400 -81.2231 218° Southwest 425 489 34,000  Level Jacksonville Center
11:59AM 33.8472 -81.3097 218° Southwest 425 489 34,000  Level Jacksonville Center
12:00PM 33.7586 -81.4011 221° Southwest 425 489 34,000  Level Jacksonville Center
12:01PM 33.6681 -81.4900 219° Southwest 425 489 34,000  Level Jacksonville Center
12:02PM 33.5750 -81.5789 219° Southwest 425 489 34,000  Level Jacksonville Center
12:05PM 33.3522 -81.7931 219° Southwest 426 490 34,000  Level Atlanta Center
12:06PM 33.2556 -81.8825 218° Southwest 433 498 34,000  Level Atlanta Center
12:07PM 33.1611 -81.9717 218° Southwest 438 504 34,000  Level Atlanta Center
12:08PM 33.0667 -82.0608 218° Southwest 438 504 34,000  Level Atlanta Center
12:09PM 32.9719 -82.1519 219° Southwest 443 510 34,000  Level Atlanta Center
12:10PM 32.8772 -82.2431 219° Southwest 443 510 34,000  Level Atlanta Center
12:11PM 32.7825 -82.3342 219° Southwest 443 510 34,000  Level Atlanta Center
12:13PM 32.5542 -82.5081 213° Southwest 444 511 34,000  Level Jacksonville Center
12:14PM 32.4375 -82.5628 202° Southwest 439 505 34,000  Level Jacksonville Center
12:15PM 32.3333 -82.6075 200° South 444 511 34,000  Level Jacksonville Center
12:16PM 32.2144 -82.6494 197° South 455 524 34,000  Level Jacksonville Center
12:17PM 32.0911 -82.6767 191° South 455 524 34,000  Level Jacksonville Center
12:18PM 31.9658 -82.7089 192° South 455 524 34,000  Level Jacksonville Center
12:19PM 31.8428 -82.7408 192° South 455 524 34,000  Level Jacksonville Center
12:20PM 31.7197 -82.7850 197° South 455 524 34,000  Level Jacksonville Center
12:21PM 31.6069 -82.8486 206° Southwest 455 524 34,000  Level Jacksonville Center
12:22PM 31.4942 -82.9219 209° Southwest 455 524 34,000  Level Jacksonville Center
12:23PM 31.3794 -82.9900 207° Southwest 460 529 34,000  Level Jacksonville Center
12:24PM 31.2728 -83.0506 206° Southwest 453 521 34,000  Level Jacksonville Center
12:25PM 31.1558 -83.1158 206° Southwest 448 516 34,000 -540 Level Jacksonville Center
12:26PM 31.0450 -83.1858 208° Southwest 453 521 33,000 -960 Descending Jacksonville Center
12:27PM 30.9300 -83.2533 207° Southwest 453 521 32,100 -960 Descending Jacksonville Center
12:28PM 30.8211 -83.3183 207° Southwest 453 521 31,100 -1,080 Descending Jacksonville Center
12:29PM 30.7061 -83.3856 207° Southwest 453 521 30,000 -1,020 Descending Jacksonville Center
12:30PM 30.5953 -83.4500 207° Southwest 453 521 29,100 -960 Descending Jacksonville Center
12:31PM 30.4781 -83.5169 206° Southwest 453 521 28,100 -1,020 Descending Jacksonville Center
12:32PM 30.3628 -83.5858 207° Southwest 453 521 27,100 -1,020 Descending Jacksonville Center
12:33PM 30.2475 -83.6525 207° Southwest 453 521 26,100 -1,020 Descending Jacksonville Center
12:34PM 30.1281 -83.7211 206° Southwest 463 533 25,100 -1,020 Descending Jacksonville Center
12:35PM 30.0108 -83.7897 207° Southwest 469 540 24,100 -1,020 Descending Jacksonville Center
12:36PM 29.8997 -83.8558 207° Southwest 464 534 23,100 -1,020 Descending Jacksonville Center
12:37PM 29.7825 -83.8808 190° South 454 522 22,100 -900 Descending Jacksonville Center
12:38PM 29.6722 -83.8153 153° Southeast 410 472 21,300 -900 Descending Jacksonville Center
12:39PM 29.5683 -83.7522 152° Southeast 410 472 20,400 -1,020 Descending Jacksonville Center
12:40PM 29.4517 -83.7178 166° South 421 484 19,300 -720 Descending Jacksonville Center
12:41PM 29.3392 -83.6836 165° South 421 484 19,000 -180 Descending Jacksonville Center
12:42PM 29.2267 -83.6469 164° South 421 484 19,000 -420 Level Jacksonville Center
12:43PM 29.1164 -83.6128 165° South 415 478 18,200 -900 Descending Jacksonville Center
12:44PM 29.0017 -83.5786 165° South 415 478 17,200 -1,020 Descending Jacksonville Center
12:45PM 28.8933 -83.5447 165° South 415 478 16,200 -1,020 Descending Jacksonville Center
12:46PM 28.8081 -83.4731 144° Southeast 387 445 15,200 -1,020 Descending Jacksonville Center
12:47PM 28.7333 -83.3803 133° Southeast 387 445 14,200 -1,020 Descending Jacksonville Center
12:48PM 28.6628 -83.2900 132° Southeast 382 440 13,200 -1,020 Descending Jacksonville Center
12:50PM 28.5333 -83.1500 136° Southeast 374 430 11,500 -840 Descending Tampa TRACON
12:51PM 28.4606 -83.0497 130° Southeast 371 427 11,000 -300 Descending Miami Center
12:51PM 28.4000 -82.9833 136° Southeast 369 425 11,000 -180 Level Tampa TRACON
12:52PM 28.3000 -82.9500 164° South 366 421 10,700 -420 Descending Tampa TRACON
12:53PM 28.2000 -82.9167 164° South 307 353 10,200 -900 Descending Tampa TRACON
12:54PM 28.1333 -82.8833 156° South 284 327 8,900 -1,440 Descending Tampa TRACON
12:55PM 28.0500 -82.8667 170° South 284 327 7,400 -1,500 Descending Tampa TRACON
12:56PM 27.9833 -82.8333 156° South 284 327 5,900 -1,620 Descending Tampa TRACON
12:57PM 27.9167 -82.8167 168° South 274 315 4,400 -1,560 Descending Tampa TRACON
12:58PM 27.8500 -82.7667 146° Southeast 240 276 2,800 -1,440 Descending Tampa TRACON
12:59PM 27.8333 -82.7000 106° East 205 236 1,400 -1,080 Descending Tampa TRACON
01:00PM 27.8667 -82.6833 24° Northeast 136 157 700 -720 Descending Tampa TRACON